Algona, IA

11:11 PM CDT on May 22, 2018 (GMT -0500)
Algona Municipal

Weather History for KAXA - March, 2012

Change the Weather History Date:

Friday, March 30, 2012

  Actual Average Record
Temperature  
Mean Temperature 55 °F -  
Max Temperature 62 °F 47 °F 75 °F (1999)
Min Temperature 48 °F 30 °F 26 °F (2003)
Degree Days  
Heating Degree Days 10    
Growing Degree Days 5 (Base 50)    
Moisture  
Dew Point 50 °F    
Average Humidity 90    
Maximum Humidity 100    
Minimum Humidity 63    
Precipitation  
Precipitation 0.06 in - - ()
Sea Level Pressure  
Sea Level Pressure 29.76 in    
Wind  
Wind Speed 6 mph (ESE)    
Max Wind Speed 21 mph    
Max Gust Speed 24 mph    
Visibility 6 miles    
Events Fog , Rain    
Averages and records for this station are not official NWS values.
T = Trace of Precipitation, MM = Missing Value Source: NWS Daily Summary

Daily Weather History Graph

Daily Weather History Graph

Search for Another Location

Airport or City:

Astronomy

Mar. 30, 2012 Rise Set
Actual Time 7:01 AM CDT 7:41 PM CDT
Civil Twilight 6:33 AM CDT 8:10 PM CDT
Nautical Twilight 5:59 AM CDT 8:44 PM CDT
Astronomical Twilight 5:24 AM CDT 9:19 PM CDT
Moon 12:01 PM CDT (3/30) 2:26 AM CDT (3/30)
Length of Visible Light 13h 37m
Length of Day
12h 40m
Waxing Crescent, 49% of the Moon is Illuminated
Mar 30
Waxing Crescent
Mar 30
First Quarter
Apr 6
Full
Apr 13
Last Quarter
Apr 21
New

Hourly Weather History & Observations

Time (CDT) Temp. Dew Point Humidity Pressure Visibility Wind Dir Wind Speed Gust Speed Precip Events Conditions
12:15 AM 51.8 °F 50.0 °F 94% 29.71 in 7.0 mi ESE 11.5 mph - 0.02 in Rain Light Rain
12:35 AM 50.0 °F 48.2 °F 94% 29.67 in 7.0 mi ESE 20.7 mph - 0.05 in Rain Light Rain
12:55 AM 50.0 °F 48.2 °F 94% 29.66 in 7.0 mi ESE 16.1 mph 24.2 mph 0.06 in Rain Light Rain
1:15 AM 50.0 °F 48.2 °F 94% 29.68 in 10.0 mi ESE 9.2 mph 17.3 mph N/A   Scattered Clouds
1:35 AM 50.0 °F 48.2 °F 94% 29.73 in 10.0 mi Calm Calm - N/A   Scattered Clouds
1:55 AM 50.0 °F 48.2 °F 94% 29.74 in 10.0 mi Calm Calm - N/A   Overcast
2:15 AM 50.0 °F 48.2 °F 94% 29.74 in 10.0 mi Calm Calm - N/A   Overcast
2:35 AM 50.0 °F 48.2 °F 94% 29.74 in 7.0 mi NNE 3.5 mph - N/A   Overcast
2:55 AM 50.0 °F 48.2 °F 94% 29.75 in 5.0 mi Calm Calm - N/A   Overcast
3:15 AM 48.2 °F 48.2 °F 100% 29.75 in 5.0 mi Calm Calm - N/A   Overcast
3:35 AM 50.0 °F 48.2 °F 94% 29.74 in 5.0 mi ENE 3.5 mph - N/A   Overcast
3:55 AM 48.2 °F 48.2 °F 100% 29.74 in 4.0 mi NE 3.5 mph - N/A   Overcast
4:15 AM 48.2 °F 48.2 °F 100% 29.73 in 5.0 mi East 4.6 mph - N/A   Mostly Cloudy
4:35 AM 48.2 °F 48.2 °F 100% 29.72 in 4.0 mi East 4.6 mph - N/A   Scattered Clouds
4:55 AM 48.2 °F 48.2 °F 100% 29.73 in 5.0 mi Calm Calm - N/A   Overcast
5:15 AM 48.2 °F 48.2 °F 100% 29.72 in 4.0 mi Calm Calm - N/A   Mostly Cloudy
5:35 AM 48.2 °F 48.2 °F 100% 29.71 in 3.0 mi East 4.6 mph - N/A   Mostly Cloudy
5:55 AM 48.2 °F 48.2 °F 100% 29.73 in 4.0 mi Calm Calm - N/A   Overcast
6:15 AM 48.2 °F 48.2 °F 100% 29.73 in 4.0 mi Calm Calm - N/A   Overcast
6:35 AM 48.2 °F 48.2 °F 100% 29.73 in 4.0 mi SE 3.5 mph - N/A   Overcast
6:55 AM 48.2 °F 48.2 °F 100% 29.73 in 3.0 mi ESE 4.6 mph - N/A   Overcast
7:15 AM 48.2 °F 48.2 °F 100% 29.75 in 3.0 mi SE 3.5 mph - N/A   Overcast
7:35 AM 48.2 °F 48.2 °F 100% 29.76 in 2.5 mi Calm Calm - N/A   Overcast
7:55 AM 48.2 °F 48.2 °F 100% 29.76 in 0.8 mi Calm Calm - N/A   Overcast
8:15 AM 48.2 °F 48.2 °F 100% 29.77 in 1.0 mi Calm Calm - N/A   Overcast
8:35 AM 48.2 °F 48.2 °F 100% 29.78 in 1.0 mi Calm Calm - N/A   Overcast
8:55 AM 48.2 °F 48.2 °F 100% 29.78 in 0.5 mi Calm Calm - N/A Fog Fog
9:15 AM 48.2 °F 48.2 °F 100% 29.79 in 0.2 mi Calm Calm - N/A Fog Fog
9:35 AM 50.0 °F 50.0 °F 100% 29.79 in 0.2 mi Calm Calm - N/A Fog Fog
9:55 AM 50.0 °F 50.0 °F 100% 29.80 in 0.5 mi Calm Calm - N/A Fog Fog
10:15 AM 51.8 °F 51.8 °F 100% 29.80 in 1.2 mi West 3.5 mph - N/A   Overcast
10:35 AM 53.6 °F 53.6 °F 100% 29.80 in 2.5 mi Calm Calm - N/A   Overcast
10:55 AM 53.6 °F 51.8 °F 94% 29.81 in 4.0 mi NNE 3.5 mph - N/A   Overcast
11:35 AM 53.6 °F 51.8 °F 94% 29.82 in 5.0 mi ENE 3.5 mph - N/A   Overcast
11:55 AM 55.4 °F 53.6 °F 94% 29.81 in 4.0 mi East 5.8 mph - N/A   Overcast
12:15 PM 55.4 °F 51.8 °F 88% 29.82 in 5.0 mi ENE 3.5 mph - N/A   Overcast
12:35 PM 55.4 °F 51.8 °F 88% 29.82 in 7.0 mi Calm Calm - N/A   Overcast
12:55 PM 55.4 °F 51.8 °F 88% 29.82 in 5.0 mi SE 3.5 mph - N/A   Overcast
1:15 PM 55.4 °F 53.6 °F 94% 29.81 in 5.0 mi ESE 3.5 mph - N/A   Overcast
1:35 PM 57.2 °F 51.8 °F 82% 29.81 in 7.0 mi SE 3.5 mph - N/A   Overcast
1:55 PM 57.2 °F 53.6 °F 88% 29.81 in 7.0 mi SE 4.6 mph - N/A   Mostly Cloudy
2:15 PM 57.2 °F 51.8 °F 82% 29.81 in 7.0 mi Calm Calm - N/A   Mostly Cloudy
2:35 PM 59.0 °F 53.6 °F 82% 29.81 in 7.0 mi ENE 3.5 mph - N/A   Mostly Cloudy
2:55 PM 60.8 °F 51.8 °F 72% 29.80 in 7.0 mi Calm Calm - N/A   Scattered Clouds
3:15 PM 60.8 °F 51.8 °F 72% 29.78 in 10.0 mi ENE 9.2 mph - N/A   Clear
3:35 PM 60.8 °F 51.8 °F 72% 29.77 in 10.0 mi East 6.9 mph - N/A   Clear
3:55 PM 62.6 °F 51.8 °F 68% 29.77 in 10.0 mi ESE 8.1 mph - N/A   Clear
4:15 PM 62.6 °F 51.8 °F 68% 29.77 in 10.0 mi East 6.9 mph - N/A   Clear
4:35 PM 62.6 °F 51.8 °F 68% 29.77 in 10.0 mi SE 8.1 mph - N/A   Clear
4:55 PM 62.6 °F 50.0 °F 63% 29.77 in 10.0 mi East 5.8 mph - N/A   Clear
5:15 PM 62.6 °F 50.0 °F 63% 29.77 in 10.0 mi SSE 6.9 mph - N/A   Clear
5:35 PM 60.8 °F 51.8 °F 72% 29.78 in 10.0 mi SSE 10.4 mph - N/A   Scattered Clouds
5:55 PM 60.8 °F 51.8 °F 72% 29.78 in 10.0 mi SSE 9.2 mph - N/A   Scattered Clouds
6:15 PM 60.8 °F 51.8 °F 72% 29.78 in 10.0 mi SE 11.5 mph - N/A   Scattered Clouds
6:35 PM 60.8 °F 51.8 °F 72% 29.78 in 10.0 mi ESE 10.4 mph - N/A   Scattered Clouds
6:55 PM 57.2 °F 50.0 °F 77% 29.78 in 10.0 mi SE 10.4 mph - N/A   Clear
7:15 PM 57.2 °F 51.8 °F 82% 29.79 in 10.0 mi SE 12.7 mph - N/A   Clear
7:35 PM 55.4 °F 51.8 °F 88% 29.80 in 10.0 mi ESE 9.2 mph - N/A   Clear
7:55 PM 55.4 °F 51.8 °F 88% 29.81 in 10.0 mi ESE 9.2 mph - N/A   Clear
8:15 PM 53.6 °F 50.0 °F 88% 29.80 in 10.0 mi ESE 12.7 mph - N/A   Clear
8:35 PM 53.6 °F 50.0 °F 88% 29.81 in 10.0 mi ESE 10.4 mph - N/A   Clear
8:55 PM 51.8 °F 48.2 °F 88% 29.82 in 10.0 mi SE 11.5 mph - N/A   Clear
9:15 PM 51.8 °F 48.2 °F 88% 29.82 in 10.0 mi SE 12.7 mph - N/A   Clear
9:35 PM 51.8 °F 48.2 °F 88% 29.82 in 10.0 mi ESE 10.4 mph - N/A   Clear
9:55 PM 51.8 °F 48.2 °F 88% 29.83 in 7.0 mi ESE 11.5 mph - N/A   Clear
10:15 PM 51.8 °F 48.2 °F 88% 29.83 in 7.0 mi ESE 10.4 mph 18.4 mph N/A   Clear
10:35 PM 50.0 °F 48.2 °F 94% 29.83 in 7.0 mi ESE 9.2 mph - N/A   Clear
10:55 PM 50.0 °F 48.2 °F 94% 29.82 in 7.0 mi ESE 13.8 mph - N/A   Clear
11:15 PM 48.2 °F 48.2 °F 100% 29.82 in 7.0 mi ESE 9.2 mph - N/A   Clear
11:35 PM 48.2 °F 48.2 °F 100% 29.82 in 7.0 mi ESE 12.7 mph - N/A   Clear
11:55 PM 48.2 °F 48.2 °F 100% 29.82 in 5.0 mi ESE 10.4 mph - N/A   Clear